createdAt,value
2017-12-30T00:00:41.634Z,2.94
2017-12-30T00:01:41.643Z,2.97
2017-12-30T00:02:41.586Z,2.96
2017-12-30T00:03:41.551Z,2.94
2017-12-30T00:04:41.526Z,2.94
2017-12-30T00:05:41.525Z,2.86
2017-12-30T00:06:41.472Z,2.90
2017-12-30T00:07:41.447Z,2.96
2017-12-30T00:08:41.426Z,2.93
2017-12-30T00:09:41.393Z,2.87
2017-12-30T00:10:41.370Z,2.90
2017-12-30T00:11:41.344Z,2.93
2017-12-30T00:12:41.314Z,2.96
2017-12-30T00:13:41.289Z,3.04
2017-12-30T00:14:41.264Z,3.02
2017-12-30T00:15:41.235Z,3.00
2017-12-30T00:16:41.220Z,2.96
2017-12-30T00:17:41.185Z,2.94
2017-12-30T00:18:41.158Z,2.93
2017-12-30T00:19:41.143Z,3.00
2017-12-30T00:20:41.104Z,3.00
2017-12-30T00:21:41.077Z,2.97
2017-12-30T00:22:41.059Z,2.94
2017-12-30T00:23:41.027Z,2.93
2017-12-30T00:24:41.016Z,2.97
2017-12-30T00:25:40.975Z,2.90
2017-12-30T00:26:40.948Z,2.87
2017-12-30T00:27:40.923Z,2.93
2017-12-30T00:28:40.896Z,2.94
2017-12-30T00:29:40.869Z,2.90
2017-12-30T00:30:40.840Z,2.97
2017-12-30T00:31:40.813Z,2.97
2017-12-30T00:32:40.789Z,2.93
2017-12-30T00:33:40.760Z,2.94
2017-12-30T00:34:40.734Z,2.91
2017-12-30T00:35:40.709Z,2.96
2017-12-30T00:36:40.726Z,2.96
2017-12-30T00:37:40.654Z,2.96
2017-12-30T00:38:40.629Z,2.97
2017-12-30T00:39:40.609Z,2.90
2017-12-30T00:40:40.578Z,2.89
2017-12-30T00:41:40.548Z,2.94
2017-12-30T00:42:40.524Z,2.96
2017-12-30T00:43:40.497Z,2.93
2017-12-30T00:44:40.474Z,2.91
2017-12-30T00:45:40.450Z,2.90
2017-12-30T00:46:40.418Z,2.91
2017-12-30T00:47:40.393Z,2.99
2017-12-30T00:48:40.370Z,2.93
2017-12-30T00:49:40.342Z,2.93
2017-12-30T00:50:40.318Z,2.89
2017-12-30T00:51:40.285Z,2.91
2017-12-30T00:52:40.259Z,2.90
2017-12-30T00:53:40.245Z,3.02
2017-12-30T00:54:40.208Z,2.87
2017-12-30T00:55:40.183Z,2.91
2017-12-30T00:56:40.162Z,2.81
2017-12-30T00:57:40.131Z,2.71
2017-12-30T00:58:40.108Z,2.73
2017-12-30T00:59:40.077Z,2.81
2017-12-30T01:00:40.048Z,2.79
2017-12-30T01:01:40.027Z,2.72
2017-12-30T01:02:40.002Z,2.72
2017-12-30T01:03:39.972Z,2.69
2017-12-30T01:04:39.945Z,2.69
2017-12-30T01:05:39.921Z,2.72
2017-12-30T01:06:39.939Z,2.76
2017-12-30T01:07:39.866Z,2.73
2017-12-30T01:08:39.838Z,2.71
2017-12-30T01:09:39.813Z,2.69
2017-12-30T01:10:39.789Z,2.60
2017-12-30T01:11:39.801Z,2.60
2017-12-30T01:12:39.734Z,2.65
2017-12-30T01:13:39.707Z,2.71
2017-12-30T01:14:39.677Z,2.63
2017-12-30T01:15:39.657Z,2.71
2017-12-30T01:16:39.624Z,2.69
2017-12-30T01:17:39.599Z,2.71
2017-12-30T01:18:39.596Z,2.69
2017-12-30T01:19:39.572Z,2.69
2017-12-30T01:20:39.549Z,2.71
2017-12-30T01:21:39.542Z,2.71
2017-12-30T01:22:39.512Z,2.69
2017-12-30T01:23:39.436Z,2.66
2017-12-30T01:24:39.424Z,2.69
2017-12-30T01:25:39.384Z,2.58
2017-12-30T01:26:39.359Z,2.66
2017-12-30T01:27:39.332Z,2.75
2017-12-30T01:28:39.307Z,2.76
2017-12-30T01:29:39.278Z,2.76
2017-12-30T01:30:39.258Z,2.69
2017-12-30T01:31:39.228Z,2.76
2017-12-30T01:32:39.197Z,2.75
2017-12-30T01:33:39.175Z,2.76
2017-12-30T01:34:39.148Z,2.75
2017-12-30T01:35:39.120Z,2.79
2017-12-30T01:36:39.106Z,2.81
2017-12-30T01:37:39.066Z,2.84
2017-12-30T01:38:39.058Z,2.75
2017-12-30T01:39:39.013Z,2.84
2017-12-30T01:40:38.986Z,2.79
2017-12-30T01:41:38.973Z,2.91
2017-12-30T01:42:38.945Z,2.89
2017-12-30T01:43:38.906Z,2.86
2017-12-30T01:44:38.884Z,2.96
2017-12-30T01:45:38.877Z,2.89
2017-12-30T01:46:38.832Z,2.87
2017-12-30T01:47:38.809Z,2.93
2017-12-30T01:48:38.784Z,2.97
2017-12-30T01:49:38.766Z,2.90
2017-12-30T01:50:38.723Z,3.04
2017-12-30T01:51:38.702Z,2.99
2017-12-30T01:52:38.669Z,3.02
2017-12-30T01:53:38.646Z,3.00
2017-12-30T01:54:38.617Z,3.04
2017-12-30T01:55:38.604Z,3.04
2017-12-30T01:56:38.565Z,3.08
2017-12-30T01:57:38.549Z,3.05
2017-12-30T01:58:38.509Z,3.05
2017-12-30T01:59:38.486Z,3.08
2017-12-30T02:00:38.468Z,3.00
2017-12-30T02:01:38.436Z,3.02
2017-12-30T02:02:38.405Z,2.96
2017-12-30T02:03:38.387Z,3.04
2017-12-30T02:04:38.361Z,3.05
2017-12-30T02:05:38.325Z,3.07
2017-12-30T02:06:38.307Z,3.02
2017-12-30T02:07:38.276Z,2.99
2017-12-30T02:08:38.247Z,3.07
2017-12-30T02:09:38.226Z,3.02
2017-12-30T02:10:38.201Z,2.99
2017-12-30T02:11:38.185Z,3.11
2017-12-30T02:12:38.147Z,3.02
2017-12-30T02:13:38.116Z,3.02
2017-12-30T02:14:38.096Z,2.96
2017-12-30T02:15:38.064Z,3.00
2017-12-30T02:16:38.041Z,2.94
2017-12-30T02:17:38.012Z,2.91
2017-12-30T02:18:37.989Z,2.96
2017-12-30T02:19:37.959Z,2.96
2017-12-30T02:20:37.936Z,2.93
2017-12-30T02:21:37.948Z,2.86
2017-12-30T02:22:37.885Z,2.99
2017-12-30T02:23:37.852Z,2.91
2017-12-30T02:24:37.839Z,2.91
2017-12-30T02:25:37.804Z,2.99
2017-12-30T02:26:37.773Z,2.96
2017-12-30T02:27:37.752Z,2.89
2017-12-30T02:28:37.728Z,2.90
2017-12-30T02:29:37.700Z,2.91
2017-12-30T02:30:37.669Z,2.96
2017-12-30T02:31:37.642Z,3.05
2017-12-30T02:32:37.625Z,2.99
2017-12-30T02:33:37.591Z,3.05
2017-12-30T02:34:37.564Z,3.00
2017-12-30T02:35:37.536Z,2.94
2017-12-30T02:36:37.511Z,2.94
2017-12-30T02:37:37.503Z,2.91
2017-12-30T02:38:37.463Z,2.94
2017-12-30T02:39:37.430Z,2.94
2017-12-30T02:40:37.527Z,2.97
2017-12-30T02:41:37.395Z,3.02
2017-12-30T02:42:37.357Z,2.97
2017-12-30T02:43:37.331Z,2.96
2017-12-30T02:44:37.308Z,3.00
2017-12-30T02:45:37.276Z,3.08
2017-12-30T02:46:37.251Z,3.11
2017-12-30T02:47:37.222Z,3.12
2017-12-30T02:48:37.196Z,3.09
2017-12-30T02:49:37.172Z,3.09
2017-12-30T02:50:37.143Z,3.05
2017-12-30T02:51:37.123Z,3.04
2017-12-30T02:52:37.095Z,3.05
2017-12-30T02:53:37.070Z,3.09
2017-12-30T02:54:37.044Z,3.12
2017-12-30T02:55:37.010Z,3.11
2017-12-30T02:56:37.030Z,3.11
2017-12-30T02:57:36.957Z,3.09
2017-12-30T02:58:36.934Z,3.09
2017-12-30T02:59:36.912Z,3.18
2017-12-30T03:00:36.878Z,3.04
2017-12-30T03:01:36.862Z,3.12
2017-12-30T03:02:36.837Z,3.11
2017-12-30T03:03:36.799Z,3.07
2017-12-30T03:04:36.781Z,3.04
2017-12-30T03:05:36.756Z,3.04
2017-12-30T03:06:36.721Z,3.02
2017-12-30T03:07:36.698Z,3.00
2017-12-30T03:08:36.675Z,3.02
2017-12-30T03:09:36.646Z,3.04
2017-12-30T03:10:36.619Z,3.07
2017-12-30T03:11:36.594Z,3.04
2017-12-30T03:12:36.566Z,3.02
2017-12-30T03:13:36.536Z,3.15
2017-12-30T03:14:36.513Z,3.17
2017-12-30T03:15:36.492Z,3.11
2017-12-30T03:16:36.466Z,3.08
2017-12-30T03:17:36.438Z,3.07
2017-12-30T03:18:36.409Z,3.12
2017-12-30T03:19:36.375Z,3.09
2017-12-30T03:20:36.353Z,3.23
2017-12-30T03:21:36.332Z,3.17
2017-12-30T03:22:36.307Z,3.08
2017-12-30T03:23:36.280Z,3.08
2017-12-30T03:24:36.249Z,3.17
2017-12-30T03:25:42.986Z,3.18
2017-12-30T03:26:36.207Z,3.09
2017-12-30T03:27:36.173Z,3.14
2017-12-30T03:28:36.145Z,3.20
2017-12-30T03:29:36.115Z,3.22
2017-12-30T03:30:36.091Z,3.22
2017-12-30T03:31:36.084Z,3.17
2017-12-30T03:32:36.087Z,3.20
2017-12-30T03:33:36.013Z,3.20
2017-12-30T03:34:35.989Z,3.27
2017-12-30T03:35:35.964Z,3.20
2017-12-30T03:36:35.934Z,3.22
2017-12-30T03:37:35.913Z,3.22
2017-12-30T03:38:35.885Z,3.26
2017-12-30T03:39:35.856Z,3.23
2017-12-30T03:40:35.843Z,3.23
2017-12-30T03:41:35.802Z,3.22
2017-12-30T03:42:35.780Z,3.17
2017-12-30T03:43:35.754Z,3.22
2017-12-30T03:44:35.723Z,3.15
2017-12-30T03:45:35.697Z,3.25
2017-12-30T03:46:35.680Z,3.14
2017-12-30T03:47:35.646Z,3.25
2017-12-30T03:48:35.621Z,3.18
2017-12-30T03:49:35.594Z,3.18
2017-12-30T03:50:35.575Z,3.18
2017-12-30T03:51:35.549Z,3.18
2017-12-30T03:52:35.515Z,3.18
2017-12-30T03:53:35.495Z,3.17
2017-12-30T03:54:35.471Z,3.15
2017-12-30T03:55:35.440Z,3.15
2017-12-30T03:56:35.440Z,3.18
2017-12-30T03:57:35.388Z,3.20
2017-12-30T03:58:35.356Z,3.15
2017-12-30T03:59:35.337Z,3.20
2017-12-30T04:00:35.308Z,3.22
2017-12-30T04:01:35.280Z,3.20
2017-12-30T04:02:35.253Z,3.17
2017-12-30T04:03:35.226Z,3.20
2017-12-30T04:04:35.202Z,3.17
2017-12-30T04:05:35.177Z,3.20
2017-12-30T04:06:35.168Z,3.23
2017-12-30T04:07:35.176Z,3.22
2017-12-30T04:08:35.100Z,3.27
2017-12-30T04:09:35.074Z,3.17
2017-12-30T04:10:35.047Z,3.27
2017-12-30T04:11:35.016Z,3.26
2017-12-30T04:12:34.995Z,3.23
2017-12-30T04:13:34.967Z,3.26
2017-12-30T04:14:34.940Z,3.27
2017-12-30T04:15:34.911Z,3.37
2017-12-30T04:16:34.886Z,3.29
2017-12-30T04:17:34.860Z,3.29
2017-12-30T04:18:34.834Z,3.32
2017-12-30T04:19:34.807Z,3.44
2017-12-30T04:20:34.780Z,3.37
2017-12-30T04:21:34.756Z,3.42
2017-12-30T04:22:34.735Z,3.36
2017-12-30T04:23:34.706Z,3.37
2017-12-30T04:24:34.677Z,3.49
2017-12-30T04:25:34.656Z,3.45
2017-12-30T04:26:34.627Z,3.44
2017-12-30T04:27:34.599Z,3.56
2017-12-30T04:28:34.577Z,3.51
2017-12-30T04:29:34.548Z,3.56
2017-12-30T04:30:34.524Z,3.63
2017-12-30T04:31:34.496Z,3.52
2017-12-30T04:32:34.466Z,3.59
2017-12-30T04:33:34.442Z,3.62
2017-12-30T04:34:34.419Z,3.59
2017-12-30T04:35:34.391Z,3.56
2017-12-30T04:36:34.364Z,3.66
2017-12-30T04:37:34.342Z,3.63
2017-12-30T04:38:34.317Z,3.60
2017-12-30T04:39:34.290Z,3.60
2017-12-30T04:40:34.292Z,3.59
2017-12-30T04:41:34.244Z,3.64
2017-12-30T04:42:34.248Z,3.60
2017-12-30T04:43:34.230Z,3.55
2017-12-30T04:44:34.160Z,3.60
2017-12-30T04:45:34.131Z,3.62
2017-12-30T04:46:34.104Z,3.66
2017-12-30T04:47:34.094Z,3.62
2017-12-30T04:48:34.054Z,3.62
2017-12-30T04:49:34.034Z,3.59
2017-12-30T04:50:34.003Z,3.54
2017-12-30T04:51:33.980Z,3.63
2017-12-30T04:52:33.946Z,3.62
2017-12-30T04:53:34.227Z,3.55
2017-12-30T04:54:34.041Z,3.60
2017-12-30T04:55:33.872Z,3.59
2017-12-30T04:56:33.851Z,3.62
2017-12-30T04:57:33.817Z,3.63
2017-12-30T04:58:33.798Z,3.62
2017-12-30T04:59:33.770Z,3.60
2017-12-30T05:00:33.742Z,3.60
2017-12-30T05:01:33.717Z,3.59
2017-12-30T05:02:33.693Z,3.54
2017-12-30T05:03:33.681Z,3.56
2017-12-30T05:04:33.642Z,3.51
2017-12-30T05:05:33.622Z,3.44
2017-12-30T05:06:33.588Z,3.42
2017-12-30T05:07:33.557Z,3.45
2017-12-30T05:08:33.544Z,3.45
2017-12-30T05:09:33.520Z,3.41
2017-12-30T05:10:33.482Z,3.44
2017-12-30T05:11:33.455Z,3.42
2017-12-30T05:12:33.436Z,3.44
2017-12-30T05:13:33.409Z,3.45
2017-12-30T05:14:33.382Z,3.37
2017-12-30T05:15:33.357Z,3.42
2017-12-30T05:16:33.373Z,3.37
2017-12-30T05:17:33.346Z,3.41
2017-12-30T05:18:33.276Z,3.41
2017-12-30T05:19:33.247Z,3.37
2017-12-30T05:20:33.220Z,3.30
2017-12-30T05:21:33.195Z,3.25
2017-12-30T05:22:33.178Z,3.29
2017-12-30T05:23:33.145Z,3.30
2017-12-30T05:24:33.118Z,3.32
2017-12-30T05:25:33.092Z,3.29
2017-12-30T05:26:33.066Z,3.32
2017-12-30T05:27:33.039Z,3.29
2017-12-30T05:28:33.018Z,3.26
2017-12-30T05:29:32.988Z,3.26
2017-12-30T05:30:32.962Z,3.29
2017-12-30T05:31:32.933Z,3.27
2017-12-30T05:32:32.910Z,3.29
2017-12-30T05:33:32.881Z,3.27
2017-12-30T05:34:32.860Z,3.32
2017-12-30T05:35:32.828Z,3.29
2017-12-30T05:36:32.806Z,3.42
2017-12-30T05:37:32.783Z,3.45
2017-12-30T05:38:32.752Z,3.42
2017-12-30T05:39:32.725Z,3.30
2017-12-30T05:40:32.706Z,3.33
2017-12-30T05:41:32.681Z,3.29
2017-12-30T05:42:32.648Z,3.35
2017-12-30T05:43:32.623Z,3.32
2017-12-30T05:44:32.596Z,3.27
2017-12-30T05:45:32.573Z,3.30
2017-12-30T05:46:32.543Z,3.25
2017-12-30T05:47:32.519Z,3.26
2017-12-30T05:48:32.492Z,3.27
2017-12-30T05:49:32.465Z,3.29
2017-12-30T05:50:32.436Z,3.35
2017-12-30T05:51:32.416Z,3.18
2017-12-30T05:52:32.415Z,3.20
2017-12-30T05:53:32.369Z,3.25
2017-12-30T05:54:32.338Z,3.20
2017-12-30T05:55:32.309Z,3.25
2017-12-30T05:56:32.280Z,3.22
2017-12-30T05:57:32.267Z,3.27
2017-12-30T05:58:32.229Z,3.25
2017-12-30T05:59:32.205Z,3.32
2017-12-30T06:00:32.185Z,3.23
2017-12-30T06:01:32.148Z,3.23
2017-12-30T06:02:32.124Z,3.29
2017-12-30T06:03:32.101Z,3.18
2017-12-30T06:04:32.074Z,3.22
2017-12-30T06:05:32.049Z,3.09
2017-12-30T06:06:32.016Z,3.08
2017-12-30T06:07:31.991Z,3.15
2017-12-30T06:08:31.974Z,3.15
2017-12-30T06:09:31.939Z,3.14
2017-12-30T06:10:31.920Z,3.23
2017-12-30T06:11:31.893Z,3.04
2017-12-30T06:12:31.869Z,3.02
2017-12-30T06:13:31.836Z,3.08
2017-12-30T06:14:31.810Z,3.07
2017-12-30T06:15:31.781Z,3.08
2017-12-30T06:16:31.756Z,3.20
2017-12-30T06:17:31.731Z,3.22
2017-12-30T06:18:31.706Z,3.22
2017-12-30T06:19:31.677Z,3.12
2017-12-30T06:20:31.649Z,3.12
2017-12-30T06:21:31.625Z,3.15
2017-12-30T06:22:31.598Z,3.17
2017-12-30T06:23:31.573Z,3.12
2017-12-30T06:24:31.545Z,3.18
2017-12-30T06:25:31.527Z,3.20
2017-12-30T06:26:31.492Z,3.07
2017-12-30T06:27:31.507Z,3.17
2017-12-30T06:28:31.444Z,3.18
2017-12-30T06:29:31.415Z,3.15
2017-12-30T06:30:31.388Z,3.12
2017-12-30T06:31:31.361Z,3.18
2017-12-30T06:32:31.338Z,3.22
2017-12-30T06:33:31.308Z,3.23
2017-12-30T06:34:31.284Z,3.25
2017-12-30T06:35:31.258Z,3.15
2017-12-30T06:36:31.244Z,3.18
2017-12-30T06:37:31.204Z,3.20
2017-12-30T06:38:31.182Z,3.15
2017-12-30T06:39:31.151Z,3.17
2017-12-30T06:40:31.123Z,3.17
2017-12-30T06:41:31.108Z,3.20
2017-12-30T06:42:31.070Z,3.23
2017-12-30T06:43:31.047Z,3.26
2017-12-30T06:44:31.018Z,3.25
2017-12-30T06:45:31.003Z,3.27
2017-12-30T06:46:30.970Z,3.26
2017-12-30T06:47:30.944Z,3.29
2017-12-30T06:48:30.923Z,3.27
2017-12-30T06:49:30.886Z,3.30
2017-12-30T06:50:30.864Z,3.30
2017-12-30T06:51:30.835Z,3.30
2017-12-30T06:52:30.812Z,3.29
2017-12-30T06:53:30.782Z,3.33
2017-12-30T06:54:30.760Z,3.29
2017-12-30T06:55:30.735Z,3.29
2017-12-30T06:56:37.565Z,3.27
2017-12-30T06:57:30.680Z,3.42
2017-12-30T06:58:30.651Z,3.41
2017-12-30T06:59:30.626Z,3.30
2017-12-30T07:00:30.599Z,3.42
2017-12-30T07:01:30.610Z,3.44
2017-12-30T07:02:30.584Z,3.42
2017-12-30T07:03:30.523Z,3.44
2017-12-30T07:04:30.495Z,3.45
2017-12-30T07:05:30.467Z,3.44
2017-12-30T07:06:30.442Z,3.45
2017-12-30T07:07:30.419Z,3.45
2017-12-30T07:08:30.390Z,3.42
2017-12-30T07:09:30.362Z,3.42
2017-12-30T07:10:30.338Z,3.45
2017-12-30T07:11:30.319Z,3.54
2017-12-30T07:12:30.284Z,3.52
2017-12-30T07:13:30.259Z,3.46
2017-12-30T07:14:30.234Z,3.44
2017-12-30T07:15:30.205Z,3.45
2017-12-30T07:16:30.185Z,3.42
2017-12-30T07:17:30.153Z,3.37
2017-12-30T07:18:30.130Z,3.41
2017-12-30T07:19:30.107Z,3.41
2017-12-30T07:20:30.082Z,3.37
2017-12-30T07:21:30.053Z,3.37
2017-12-30T07:22:30.032Z,3.37
2017-12-30T07:23:29.995Z,3.37
2017-12-30T07:24:29.976Z,3.36
2017-12-30T07:25:29.948Z,3.46
2017-12-30T07:26:29.917Z,3.46
2017-12-30T07:27:29.893Z,3.46
2017-12-30T07:28:29.874Z,3.46
2017-12-30T07:29:29.841Z,3.49
2017-12-30T07:30:29.821Z,3.52
2017-12-30T07:31:29.792Z,3.45
2017-12-30T07:32:29.763Z,3.59
2017-12-30T07:33:29.736Z,3.49
2017-12-30T07:34:29.712Z,3.55
2017-12-30T07:35:29.722Z,3.56
2017-12-30T07:36:29.679Z,3.59
2017-12-30T07:37:29.683Z,3.66
2017-12-30T07:38:29.608Z,3.63
2017-12-30T07:39:29.582Z,3.64
2017-12-30T07:40:29.557Z,3.55
2017-12-30T07:41:29.530Z,3.63
2017-12-30T07:42:29.515Z,3.59
2017-12-30T07:43:29.475Z,3.63
2017-12-30T07:44:29.449Z,3.67
2017-12-30T07:45:29.424Z,3.63
2017-12-30T07:46:29.401Z,3.67
2017-12-30T07:47:29.368Z,3.70
2017-12-30T07:48:29.345Z,3.67
2017-12-30T07:49:29.320Z,3.64
2017-12-30T07:50:29.298Z,3.69
2017-12-30T07:51:29.273Z,3.70
2017-12-30T07:52:29.247Z,3.73
2017-12-30T07:53:29.223Z,3.74
2017-12-30T07:54:29.191Z,3.70
2017-12-30T07:55:29.162Z,3.72
2017-12-30T07:56:29.135Z,3.70
2017-12-30T07:57:29.110Z,3.73
2017-12-30T07:58:29.083Z,3.76
2017-12-30T07:59:29.064Z,3.72
2017-12-30T08:00:29.033Z,3.76
2017-12-30T08:01:29.008Z,3.82
2017-12-30T08:02:28.979Z,3.70
2017-12-30T08:03:28.954Z,3.78
2017-12-30T08:04:28.943Z,3.72
2017-12-30T08:05:28.902Z,3.80
2017-12-30T08:06:28.879Z,3.76
2017-12-30T08:07:28.906Z,3.72
2017-12-30T08:08:28.845Z,3.67
2017-12-30T08:09:28.814Z,3.69
2017-12-30T08:10:28.773Z,3.76
2017-12-30T08:11:28.760Z,3.70
2017-12-30T08:12:28.766Z,3.73
2017-12-30T08:13:28.700Z,3.70
2017-12-30T08:14:28.670Z,3.78
2017-12-30T08:15:28.657Z,3.76
2017-12-30T08:16:28.619Z,3.73
2017-12-30T08:17:28.600Z,3.76
2017-12-30T08:18:28.578Z,3.76
2017-12-30T08:19:28.540Z,3.85
2017-12-30T08:20:28.540Z,3.80
2017-12-30T08:21:28.498Z,3.82
2017-12-30T08:22:28.463Z,3.78
2017-12-30T08:23:28.445Z,3.81
2017-12-30T08:24:28.411Z,3.90
2017-12-30T08:25:28.386Z,3.92
2017-12-30T08:26:28.357Z,3.92
2017-12-30T08:27:28.334Z,3.92
2017-12-30T08:28:28.307Z,3.98
2017-12-30T08:29:28.282Z,3.99
2017-12-30T08:30:28.255Z,3.98
2017-12-30T08:31:28.228Z,3.99
2017-12-30T08:32:28.205Z,4.00
2017-12-30T08:33:28.178Z,3.98
2017-12-30T08:34:28.151Z,4.00
2017-12-30T08:35:28.128Z,3.99
2017-12-30T08:36:28.102Z,3.99
2017-12-30T08:37:28.097Z,4.09
2017-12-30T08:38:28.051Z,4.06
2017-12-30T08:39:28.022Z,4.09
2017-12-30T08:40:27.995Z,4.09
2017-12-30T08:41:27.974Z,4.10
2017-12-30T08:42:27.957Z,4.08
2017-12-30T08:43:27.928Z,4.08
2017-12-30T08:44:27.891Z,4.12
2017-12-30T08:45:27.867Z,4.17
2017-12-30T08:46:27.848Z,4.10
2017-12-30T08:47:27.867Z,4.12
2017-12-30T08:48:27.795Z,4.13
2017-12-30T08:50:27.739Z,4.21
2017-12-30T08:51:27.714Z,4.18
2017-12-30T08:52:27.693Z,4.27
2017-12-30T08:53:27.660Z,4.23
2017-12-30T08:54:27.635Z,4.35
2017-12-30T08:55:27.606Z,4.34
2017-12-30T08:56:27.581Z,4.35
2017-12-30T08:57:27.562Z,4.36
2017-12-30T08:58:27.533Z,4.42
2017-12-30T08:59:27.509Z,4.41
2017-12-30T09:00:27.485Z,4.42
2017-12-30T09:01:27.452Z,4.45
2017-12-30T09:02:27.431Z,4.48
2017-12-30T09:03:27.406Z,4.46
2017-12-30T09:04:27.379Z,4.45
2017-12-30T09:05:27.348Z,4.51
2017-12-30T09:06:27.322Z,4.41
2017-12-30T09:07:27.302Z,4.53
2017-12-30T09:08:27.275Z,4.48
2017-12-30T09:09:27.251Z,4.45
2017-12-30T09:10:27.223Z,4.49
2017-12-30T09:11:27.198Z,4.45
2017-12-30T09:12:27.171Z,4.51
2017-12-30T09:13:27.144Z,4.63
2017-12-30T09:14:27.119Z,4.54
2017-12-30T09:15:27.092Z,4.64
2017-12-30T09:16:27.071Z,4.61
2017-12-30T09:17:27.041Z,4.59
2017-12-30T09:18:27.017Z,4.64
2017-12-30T09:19:26.990Z,4.56
2017-12-30T09:20:26.965Z,4.53
2017-12-30T09:21:26.936Z,4.59
2017-12-30T09:22:26.917Z,4.57
2017-12-30T09:23:26.888Z,4.66
2017-12-30T09:24:26.863Z,4.69
2017-12-30T09:25:26.834Z,4.72
2017-12-30T09:26:26.813Z,4.66
2017-12-30T09:27:29.546Z,4.67
2017-12-30T09:28:26.791Z,4.66
2017-12-30T09:29:26.734Z,4.72
2017-12-30T09:30:26.719Z,4.71
2017-12-30T09:31:26.680Z,4.64
2017-12-30T09:32:26.657Z,4.77
2017-12-30T09:33:26.628Z,4.79
2017-12-30T09:34:26.610Z,4.82
2017-12-30T09:35:26.584Z,4.78
2017-12-30T09:36:26.553Z,4.79
2017-12-30T09:37:26.534Z,4.82
2017-12-30T09:38:26.507Z,4.85
2017-12-30T09:39:26.475Z,4.85
2017-12-30T09:40:26.451Z,4.85
2017-12-30T09:41:26.426Z,4.86
2017-12-30T09:42:26.407Z,4.83
2017-12-30T09:43:26.375Z,4.93
2017-12-30T09:44:26.354Z,4.89
2017-12-30T09:45:26.320Z,4.91
2017-12-30T09:46:26.297Z,4.91
2017-12-30T09:47:26.270Z,4.83
2017-12-30T09:48:26.251Z,4.86
2017-12-30T09:49:26.224Z,4.86
2017-12-30T09:50:26.195Z,4.93
2017-12-30T09:51:26.170Z,4.96
2017-12-30T09:52:26.147Z,4.97
2017-12-30T09:53:26.118Z,5.00
2017-12-30T09:54:26.100Z,5.06
2017-12-30T09:55:26.074Z,5.00
2017-12-30T09:56:26.042Z,5.01
2017-12-30T09:57:26.047Z,5.11
2017-12-30T09:58:26.043Z,5.09
2017-12-30T09:59:25.961Z,5.09
2017-12-30T10:00:25.939Z,5.11
2017-12-30T10:01:25.912Z,5.11
2017-12-30T10:02:25.895Z,5.15
2017-12-30T10:03:25.868Z,5.18
2017-12-30T10:04:25.835Z,5.11
2017-12-30T10:05:25.817Z,5.24
2017-12-30T10:06:25.794Z,5.18
2017-12-30T10:07:25.757Z,5.14
2017-12-30T10:08:25.733Z,5.16
2017-12-30T10:09:25.708Z,5.18
2017-12-30T10:10:25.722Z,5.18
2017-12-30T10:11:25.666Z,5.14
2017-12-30T10:12:25.633Z,5.18
2017-12-30T10:13:25.612Z,5.15
2017-12-30T10:14:25.583Z,5.18
2017-12-30T10:15:25.558Z,5.14
2017-12-30T10:16:25.553Z,5.12
2017-12-30T10:17:25.504Z,5.18
2017-12-30T10:18:25.483Z,5.11
2017-12-30T10:19:25.456Z,5.14
2017-12-30T10:20:25.433Z,5.15
2017-12-30T10:21:25.402Z,5.06
2017-12-30T10:22:25.377Z,5.06
2017-12-30T10:23:25.352Z,5.15
2017-12-30T10:24:25.327Z,5.11
2017-12-30T10:25:25.306Z,5.06
2017-12-30T10:26:25.275Z,5.07
2017-12-30T10:27:25.248Z,5.09
2017-12-30T10:28:25.223Z,5.11
2017-12-30T10:29:25.199Z,5.07
2017-12-30T10:30:25.180Z,5.09
2017-12-30T10:31:25.155Z,5.11
2017-12-30T10:32:25.123Z,5.09
2017-12-30T10:33:25.102Z,5.07
2017-12-30T10:34:25.108Z,5.11
2017-12-30T10:35:25.056Z,5.21
2017-12-30T10:36:25.017Z,5.03
2017-12-30T10:37:24.998Z,5.11
2017-12-30T10:38:24.973Z,5.07
2017-12-30T10:39:24.944Z,5.11
2017-12-30T10:40:24.920Z,5.12
2017-12-30T10:41:24.894Z,5.11
2017-12-30T10:42:24.869Z,5.09
2017-12-30T10:43:24.842Z,5.06
2017-12-30T10:44:24.823Z,5.00
2017-12-30T10:45:24.795Z,5.04
2017-12-30T10:46:24.765Z,5.06
2017-12-30T10:47:24.739Z,5.03
2017-12-30T10:48:24.740Z,5.01
2017-12-30T10:49:24.692Z,5.03
2017-12-30T10:50:24.662Z,4.96
2017-12-30T10:51:24.635Z,5.01
2017-12-30T10:52:24.619Z,5.03
2017-12-30T10:53:24.589Z,5.16
2017-12-30T10:54:24.567Z,5.06
2017-12-30T10:55:24.540Z,4.94
2017-12-30T10:56:24.510Z,5.01
2017-12-30T10:57:24.499Z,5.03
2017-12-30T10:58:24.458Z,5.09
2017-12-30T10:59:24.432Z,4.96
2017-12-30T11:00:24.413Z,5.00
2017-12-30T11:01:24.384Z,4.94
2017-12-30T11:02:24.361Z,5.00
2017-12-30T11:03:24.347Z,4.98
2017-12-30T11:04:24.305Z,4.85
2017-12-30T11:05:24.280Z,4.79
2017-12-30T11:06:24.259Z,4.89
2017-12-30T11:07:24.237Z,4.83
2017-12-30T11:08:24.253Z,4.88
2017-12-30T11:09:24.191Z,4.91
2017-12-30T11:10:24.187Z,4.96
2017-12-30T11:11:24.132Z,4.91
2017-12-30T11:12:24.104Z,4.89
2017-12-30T11:13:24.075Z,4.86
2017-12-30T11:14:24.054Z,4.83
2017-12-30T11:15:24.027Z,4.85
2017-12-30T11:16:23.999Z,4.91
2017-12-30T11:17:23.973Z,4.89
2017-12-30T11:18:23.948Z,4.79
2017-12-30T11:19:23.919Z,4.83
2017-12-30T11:20:23.903Z,4.88
2017-12-30T11:21:23.869Z,4.88
2017-12-30T11:22:23.848Z,4.85
2017-12-30T11:23:23.819Z,4.77
2017-12-30T11:24:23.790Z,4.78
2017-12-30T11:25:23.773Z,4.78
2017-12-30T11:26:23.740Z,4.82
2017-12-30T11:27:23.718Z,4.85
2017-12-30T11:28:23.694Z,4.69
2017-12-30T11:29:23.666Z,4.72
2017-12-30T11:30:23.652Z,4.77
2017-12-30T11:31:23.615Z,4.71
2017-12-30T11:32:23.593Z,4.82
2017-12-30T11:33:23.571Z,4.72
2017-12-30T11:34:23.538Z,4.71
2017-12-30T11:35:23.509Z,4.66
2017-12-30T11:36:23.502Z,4.64
2017-12-30T11:37:23.462Z,4.66
2017-12-30T11:38:23.482Z,4.69
2017-12-30T11:39:23.407Z,4.61
2017-12-30T11:40:23.384Z,4.61
2017-12-30T11:41:23.357Z,4.69
2017-12-30T11:42:23.336Z,4.67
2017-12-30T11:43:23.305Z,4.72
2017-12-30T11:44:23.306Z,4.69
2017-12-30T11:45:23.271Z,4.75
2017-12-30T11:46:23.290Z,4.63
2017-12-30T11:47:23.207Z,4.63
2017-12-30T11:48:23.190Z,4.54
2017-12-30T11:49:23.154Z,4.64
2017-12-30T11:50:23.130Z,4.67
2017-12-30T11:51:23.109Z,4.61
2017-12-30T11:52:23.081Z,4.69
2017-12-30T11:53:23.057Z,4.61
2017-12-30T11:54:23.031Z,4.64
2017-12-30T11:55:23.001Z,4.64
2017-12-30T11:56:22.982Z,4.74
2017-12-30T11:57:22.953Z,4.59
2017-12-30T11:58:22.922Z,4.78
2017-12-30T11:59:22.897Z,4.82
2017-12-30T12:00:22.870Z,4.79
2017-12-30T12:01:22.847Z,4.85
2017-12-30T12:02:22.823Z,4.85
2017-12-30T12:03:22.793Z,4.88
2017-12-30T12:04:22.772Z,4.93
2017-12-30T12:05:22.785Z,4.88
2017-12-30T12:06:22.716Z,4.88
2017-12-30T12:07:22.689Z,4.82
2017-12-30T12:08:22.666Z,4.94
2017-12-30T12:09:22.641Z,4.98
2017-12-30T12:10:22.612Z,4.93
2017-12-30T12:11:22.589Z,5.01
2017-12-30T12:12:22.566Z,4.98
2017-12-30T12:13:22.543Z,5.04
2017-12-30T12:14:22.516Z,5.06
2017-12-30T12:15:22.487Z,5.04
2017-12-30T12:16:22.464Z,5.15
2017-12-30T12:17:22.445Z,5.16
2017-12-30T12:18:22.408Z,5.11
2017-12-30T12:19:22.386Z,5.09
2017-12-30T12:20:22.378Z,5.07
2017-12-30T12:21:22.334Z,5.14
2017-12-30T12:22:22.348Z,5.16
2017-12-30T12:23:22.283Z,5.16
2017-12-30T12:24:22.311Z,5.15
2017-12-30T12:25:22.231Z,5.12
2017-12-30T12:26:22.211Z,5.12
2017-12-30T12:27:22.179Z,5.21
2017-12-30T12:28:29.079Z,5.11
2017-12-30T12:29:22.187Z,5.12
2017-12-30T12:30:22.106Z,5.12
2017-12-30T12:31:22.077Z,5.24
2017-12-30T12:32:22.058Z,5.16
2017-12-30T12:33:22.033Z,5.19
2017-12-30T12:34:22.002Z,5.19
2017-12-30T12:35:21.979Z,5.22
2017-12-30T12:36:21.958Z,5.32
2017-12-30T12:37:21.925Z,5.29
2017-12-30T12:38:21.904Z,5.24
2017-12-30T12:39:21.875Z,5.21
2017-12-30T12:40:21.854Z,5.24
2017-12-30T12:41:21.823Z,5.14
2017-12-30T12:42:21.800Z,5.32
2017-12-30T12:43:21.780Z,5.19
2017-12-30T12:44:21.748Z,5.15
2017-12-30T12:45:21.725Z,5.18
2017-12-30T12:46:21.695Z,5.12
2017-12-30T12:47:21.673Z,5.18
2017-12-30T12:48:21.644Z,5.21
2017-12-30T12:49:21.618Z,5.24
2017-12-30T12:50:21.596Z,5.29
2017-12-30T12:51:21.570Z,5.30
2017-12-30T12:52:21.542Z,5.30
2017-12-30T12:53:21.521Z,5.32
2017-12-30T12:54:21.502Z,5.24
2017-12-30T12:55:21.471Z,5.29
2017-12-30T12:56:21.442Z,5.19
2017-12-30T12:57:21.431Z,5.29
2017-12-30T12:58:21.426Z,5.27
2017-12-30T12:59:21.367Z,5.25
2017-12-30T13:00:21.340Z,5.36
2017-12-30T13:01:21.312Z,5.32
2017-12-30T13:02:21.290Z,5.33
2017-12-30T13:03:21.267Z,5.32
2017-12-30T13:04:21.235Z,5.25
2017-12-30T13:05:21.211Z,5.27
2017-12-30T13:06:21.196Z,5.33
2017-12-30T13:07:21.161Z,5.27
2017-12-30T13:08:21.141Z,5.36
2017-12-30T13:09:21.111Z,5.34
2017-12-30T13:10:21.086Z,5.36
2017-12-30T13:11:21.061Z,5.37
2017-12-30T13:12:21.032Z,5.36
2017-12-30T13:13:21.011Z,5.40
2017-12-30T13:14:20.988Z,5.44
2017-12-30T13:15:20.958Z,5.36
2017-12-30T13:16:20.932Z,5.39
2017-12-30T13:17:20.911Z,5.47
2017-12-30T13:18:20.882Z,5.44
2017-12-30T13:19:20.856Z,5.51